In Rescue
 
Open Full Screen Window  High Contrast Mode
Wind Gusting 16 knots
08
April 20, 2024 8:03 AM CDT
Weather Information
Wind Direction
  320 °
Wind Speed
  08 kt (9 mph)
Wind Gust
  16 kt (18 mph)
Altimeter
30.26 in
Visibility
10 SM
Temperature
00° C
32° F
Dewpoint
-07° C
19° F
Humidity
59%
Sky Condition
Overcast @ 3,300 ft
VFR

METAR KPNM 201303Z AUTO 32008G16KT 10SM OVC033 00/M07 A3026 RMK AO2

FAA Disclaimer: The data displayed is for advisory purposes only and is not to be used for flight planning or operations.